sensor_id;sensor_type;location;lat;lon;timestamp;P1;durP1;ratioP1;P2;durP2;ratioP2
22557;SDS011;11445;53.816;8.902;2022-11-13T00:00:49;15.85;;;9.13;;
22557;SDS011;11445;53.816;8.902;2022-11-13T00:03:18;18.38;;;10.88;;
22557;SDS011;11445;53.816;8.902;2022-11-13T00:05:45;20.33;;;10.75;;
22557;SDS011;11445;53.816;8.902;2022-11-13T00:08:12;16.67;;;10.63;;
22557;SDS011;11445;53.816;8.902;2022-11-13T00:10:39;19.25;;;11.18;;
22557;SDS011;11445;53.816;8.902;2022-11-13T00:13:06;16.17;;;10.98;;
22557;SDS011;11445;53.816;8.902;2022-11-13T00:15:33;20.30;;;12.27;;
22557;SDS011;11445;53.816;8.902;2022-11-13T00:18:00;21.60;;;10.68;;
22557;SDS011;11445;53.816;8.902;2022-11-13T00:20:29;20.10;;;11.15;;
22557;SDS011;11445;53.816;8.902;2022-11-13T00:22:56;16.35;;;9.85;;
22557;SDS011;11445;53.816;8.902;2022-11-13T00:25:23;16.45;;;9.35;;
22557;SDS011;11445;53.816;8.902;2022-11-13T00:27:50;17.58;;;9.60;;
22557;SDS011;11445;53.816;8.902;2022-11-13T00:30:17;15.10;;;9.43;;
22557;SDS011;11445;53.816;8.902;2022-11-13T00:32:44;15.77;;;9.25;;
22557;SDS011;11445;53.816;8.902;2022-11-13T00:35:11;15.25;;;9.80;;
22557;SDS011;11445;53.816;8.902;2022-11-13T00:37:40;16.73;;;9.95;;
22557;SDS011;11445;53.816;8.902;2022-11-13T00:40:07;15.98;;;9.80;;
22557;SDS011;11445;53.816;8.902;2022-11-13T00:42:35;15.23;;;9.70;;
22557;SDS011;11445;53.816;8.902;2022-11-13T00:45:02;15.85;;;9.55;;
22557;SDS011;11445;53.816;8.902;2022-11-13T00:47:33;15.02;;;9.77;;
22557;SDS011;11445;53.816;8.902;2022-11-13T00:50:00;16.02;;;9.82;;
22557;SDS011;11445;53.816;8.902;2022-11-13T00:52:27;16.65;;;9.90;;
22557;SDS011;11445;53.816;8.902;2022-11-13T00:54:55;15.57;;;9.68;;
22557;SDS011;11445;53.816;8.902;2022-11-13T00:57:22;14.38;;;9.15;;
22557;SDS011;11445;53.816;8.902;2022-11-13T00:59:49;15.65;;;9.68;;
22557;SDS011;11445;53.816;8.902;2022-11-13T01:02:16;14.70;;;8.80;;
22557;SDS011;11445;53.816;8.902;2022-11-13T01:04:43;12.13;;;8.82;;
22557;SDS011;11445;53.816;8.902;2022-11-13T01:07:10;13.13;;;9.63;;
22557;SDS011;11445;53.816;8.902;2022-11-13T01:09:37;16.80;;;9.80;;
22557;SDS011;11445;53.816;8.902;2022-11-13T01:12:06;16.25;;;8.88;;
22557;SDS011;11445;53.816;8.902;2022-11-13T01:14:33;14.38;;;9.25;;
22557;SDS011;11445;53.816;8.902;2022-11-13T01:17:00;15.82;;;9.40;;
22557;SDS011;11445;53.816;8.902;2022-11-13T01:19:27;13.50;;;8.63;;
22557;SDS011;11445;53.816;8.902;2022-11-13T01:21:54;16.17;;;9.40;;
22557;SDS011;11445;53.816;8.902;2022-11-13T01:24:21;13.18;;;8.95;;
22557;SDS011;11445;53.816;8.902;2022-11-13T01:26:48;15.80;;;9.00;;
22557;SDS011;11445;53.816;8.902;2022-11-13T01:29:17;13.55;;;9.20;;
22557;SDS011;11445;53.816;8.902;2022-11-13T01:31:44;11.25;;;8.07;;
22557;SDS011;11445;53.816;8.902;2022-11-13T01:34:11;12.85;;;8.93;;
22557;SDS011;11445;53.816;8.902;2022-11-13T01:36:38;19.08;;;9.60;;
22557;SDS011;11445;53.816;8.902;2022-11-13T01:39:05;13.48;;;9.60;;
22557;SDS011;11445;53.816;8.902;2022-11-13T01:41:32;17.17;;;9.07;;
22557;SDS011;11445;53.816;8.902;2022-11-13T01:44:00;12.60;;;8.80;;
22557;SDS011;11445;53.816;8.902;2022-11-13T01:46:29;15.02;;;9.05;;
22557;SDS011;11445;53.816;8.902;2022-11-13T01:49:00;19.40;;;9.45;;
22557;SDS011;11445;53.816;8.902;2022-11-13T01:51:37;13.20;;;9.10;;
22557;SDS011;11445;53.816;8.902;2022-11-13T01:54:08;15.82;;;9.85;;
22557;SDS011;11445;53.816;8.902;2022-11-13T01:56:39;15.15;;;9.52;;
22557;SDS011;11445;53.816;8.902;2022-11-13T01:59:08;20.38;;;9.40;;
22557;SDS011;11445;53.816;8.902;2022-11-13T02:01:39;18.13;;;11.35;;
22557;SDS011;11445;53.816;8.902;2022-11-13T02:04:06;13.77;;;9.90;;
22557;SDS011;11445;53.816;8.902;2022-11-13T02:06:35;19.70;;;9.98;;
22557;SDS011;11445;53.816;8.902;2022-11-13T02:09:07;19.75;;;11.70;;
22557;SDS011;11445;53.816;8.902;2022-11-13T02:11:36;19.25;;;11.20;;
22557;SDS011;11445;53.816;8.902;2022-11-13T02:14:04;24.55;;;12.23;;
22557;SDS011;11445;53.816;8.902;2022-11-13T02:16:33;17.13;;;10.77;;
22557;SDS011;11445;53.816;8.902;2022-11-13T02:19:03;19.75;;;11.40;;
22557;SDS011;11445;53.816;8.902;2022-11-13T02:21:42;22.35;;;11.90;;
22557;SDS011;11445;53.816;8.902;2022-11-13T02:24:20;20.85;;;11.45;;
22557;SDS011;11445;53.816;8.902;2022-11-13T02:26:51;17.77;;;11.30;;
22557;SDS011;11445;53.816;8.902;2022-11-13T02:29:21;18.80;;;11.23;;
22557;SDS011;11445;53.816;8.902;2022-11-13T02:31:48;18.30;;;11.55;;
22557;SDS011;11445;53.816;8.902;2022-11-13T02:34:16;25.25;;;11.15;;
22557;SDS011;11445;53.816;8.902;2022-11-13T02:36:43;18.75;;;11.73;;
22557;SDS011;11445;53.816;8.902;2022-11-13T02:39:11;19.95;;;11.68;;
22557;SDS011;11445;53.816;8.902;2022-11-13T02:41:40;18.73;;;12.23;;
22557;SDS011;11445;53.816;8.902;2022-11-13T02:44:07;18.27;;;11.82;;
22557;SDS011;11445;53.816;8.902;2022-11-13T02:46:34;19.17;;;12.20;;
22557;SDS011;11445;53.816;8.902;2022-11-13T02:49:02;17.95;;;11.65;;
22557;SDS011;11445;53.816;8.902;2022-11-13T02:51:30;20.42;;;11.65;;
22557;SDS011;11445;53.816;8.902;2022-11-13T02:53:57;23.90;;;12.48;;
22557;SDS011;11445;53.816;8.902;2022-11-13T02:56:24;18.05;;;12.07;;
22557;SDS011;11445;53.816;8.902;2022-11-13T02:58:53;25.55;;;12.63;;
22557;SDS011;11445;53.816;8.902;2022-11-13T03:01:20;21.80;;;12.10;;
22557;SDS011;11445;53.816;8.902;2022-11-13T03:03:47;20.55;;;11.82;;
22557;SDS011;11445;53.816;8.902;2022-11-13T03:06:14;20.60;;;12.30;;
22557;SDS011;11445;53.816;8.902;2022-11-13T03:08:41;19.75;;;12.48;;
22557;SDS011;11445;53.816;8.902;2022-11-13T03:11:08;21.55;;;12.25;;
22557;SDS011;11445;53.816;8.902;2022-11-13T03:13:36;19.17;;;12.10;;
22557;SDS011;11445;53.816;8.902;2022-11-13T03:16:07;20.00;;;12.27;;
22557;SDS011;11445;53.816;8.902;2022-11-13T03:18:35;18.38;;;12.52;;
22557;SDS011;11445;53.816;8.902;2022-11-13T03:21:05;19.00;;;13.07;;
22557;SDS011;11445;53.816;8.902;2022-11-13T03:23:33;22.35;;;12.30;;
22557;SDS011;11445;53.816;8.902;2022-11-13T03:26:01;21.27;;;12.50;;
22557;SDS011;11445;53.816;8.902;2022-11-13T03:28:30;24.42;;;13.45;;
22557;SDS011;11445;53.816;8.902;2022-11-13T03:30:57;19.13;;;12.35;;
22557;SDS011;11445;53.816;8.902;2022-11-13T03:33:25;18.42;;;11.35;;
22557;SDS011;11445;53.816;8.902;2022-11-13T03:35:52;16.65;;;11.70;;
22557;SDS011;11445;53.816;8.902;2022-11-13T03:38:19;21.40;;;12.57;;
22557;SDS011;11445;53.816;8.902;2022-11-13T03:40:47;21.27;;;13.00;;
22557;SDS011;11445;53.816;8.902;2022-11-13T03:43:14;20.70;;;11.82;;
22557;SDS011;11445;53.816;8.902;2022-11-13T03:45:42;25.48;;;12.70;;
22557;SDS011;11445;53.816;8.902;2022-11-13T03:48:11;25.30;;;11.85;;
22557;SDS011;11445;53.816;8.902;2022-11-13T03:50:41;18.90;;;12.02;;
22557;SDS011;11445;53.816;8.902;2022-11-13T03:53:09;21.13;;;12.43;;
22557;SDS011;11445;53.816;8.902;2022-11-13T03:55:36;24.58;;;13.60;;
22557;SDS011;11445;53.816;8.902;2022-11-13T03:58:03;20.58;;;12.60;;
22557;SDS011;11445;53.816;8.902;2022-11-13T04:00:30;20.40;;;12.77;;
22557;SDS011;11445;53.816;8.902;2022-11-13T04:02:57;27.67;;;13.07;;
22557;SDS011;11445;53.816;8.902;2022-11-13T04:05:24;23.58;;;13.15;;
22557;SDS011;11445;53.816;8.902;2022-11-13T04:07:53;20.30;;;12.88;;
22557;SDS011;11445;53.816;8.902;2022-11-13T04:10:20;23.35;;;14.25;;
22557;SDS011;11445;53.816;8.902;2022-11-13T04:12:47;20.45;;;12.77;;
22557;SDS011;11445;53.816;8.902;2022-11-13T04:15:14;20.92;;;12.93;;
22557;SDS011;11445;53.816;8.902;2022-11-13T04:17:42;19.88;;;12.35;;
22557;SDS011;11445;53.816;8.902;2022-11-13T04:20:09;22.02;;;13.32;;
22557;SDS011;11445;53.816;8.902;2022-11-13T04:22:37;23.52;;;12.93;;
22557;SDS011;11445;53.816;8.902;2022-11-13T04:25:06;22.02;;;12.77;;
22557;SDS011;11445;53.816;8.902;2022-11-13T04:27:33;21.90;;;12.93;;
22557;SDS011;11445;53.816;8.902;2022-11-13T04:30:01;25.27;;;13.35;;
22557;SDS011;11445;53.816;8.902;2022-11-13T04:32:28;21.52;;;12.45;;
22557;SDS011;11445;53.816;8.902;2022-11-13T04:34:56;23.02;;;13.57;;
22557;SDS011;11445;53.816;8.902;2022-11-13T04:37:23;24.20;;;13.35;;
22557;SDS011;11445;53.816;8.902;2022-11-13T04:39:50;22.67;;;13.65;;
22557;SDS011;11445;53.816;8.902;2022-11-13T04:42:19;21.48;;;13.60;;
22557;SDS011;11445;53.816;8.902;2022-11-13T04:45:04;24.92;;;13.63;;
22557;SDS011;11445;53.816;8.902;2022-11-13T04:47:31;25.48;;;13.18;;
22557;SDS011;11445;53.816;8.902;2022-11-13T04:49:58;19.33;;;13.25;;
22557;SDS011;11445;53.816;8.902;2022-11-13T04:52:26;23.10;;;13.23;;
22557;SDS011;11445;53.816;8.902;2022-11-13T04:54:53;19.73;;;13.27;;
22557;SDS011;11445;53.816;8.902;2022-11-13T04:57:22;22.38;;;12.60;;
22557;SDS011;11445;53.816;8.902;2022-11-13T04:59:49;24.13;;;13.43;;
22557;SDS011;11445;53.816;8.902;2022-11-13T05:02:17;25.30;;;14.10;;
22557;SDS011;11445;53.816;8.902;2022-11-13T05:04:44;23.02;;;13.77;;
22557;SDS011;11445;53.816;8.902;2022-11-13T05:07:11;24.88;;;13.20;;
22557;SDS011;11445;53.816;8.902;2022-11-13T05:09:38;24.83;;;14.13;;
22557;SDS011;11445;53.816;8.902;2022-11-13T05:12:05;21.20;;;13.52;;
22557;SDS011;11445;53.816;8.902;2022-11-13T05:14:35;24.25;;;13.13;;
22557;SDS011;11445;53.816;8.902;2022-11-13T05:17:03;21.75;;;13.57;;
22557;SDS011;11445;53.816;8.902;2022-11-13T05:19:30;32.53;;;15.27;;
22557;SDS011;11445;53.816;8.902;2022-11-13T05:21:58;22.90;;;13.00;;
22557;SDS011;11445;53.816;8.902;2022-11-13T05:24:26;24.95;;;14.70;;
22557;SDS011;11445;53.816;8.902;2022-11-13T05:26:53;24.58;;;13.90;;
22557;SDS011;11445;53.816;8.902;2022-11-13T05:29:20;23.35;;;14.68;;
22557;SDS011;11445;53.816;8.902;2022-11-13T05:31:48;22.90;;;14.45;;
22557;SDS011;11445;53.816;8.902;2022-11-13T05:34:15;24.23;;;13.80;;
22557;SDS011;11445;53.816;8.902;2022-11-13T05:36:43;29.27;;;15.00;;
22557;SDS011;11445;53.816;8.902;2022-11-13T05:39:10;24.42;;;13.23;;
22557;SDS011;11445;53.816;8.902;2022-11-13T05:41:37;25.38;;;14.73;;
22557;SDS011;11445;53.816;8.902;2022-11-13T05:44:04;22.63;;;14.23;;
22557;SDS011;11445;53.816;8.902;2022-11-13T05:46:31;27.52;;;14.57;;
22557;SDS011;11445;53.816;8.902;2022-11-13T05:49:00;24.23;;;14.35;;
22557;SDS011;11445;53.816;8.902;2022-11-13T05:51:28;24.50;;;15.40;;
22557;SDS011;11445;53.816;8.902;2022-11-13T05:53:56;29.45;;;15.93;;
22557;SDS011;11445;53.816;8.902;2022-11-13T05:56:24;25.98;;;14.60;;
22557;SDS011;11445;53.816;8.902;2022-11-13T05:58:52;28.45;;;14.75;;
22557;SDS011;11445;53.816;8.902;2022-11-13T06:01:21;22.90;;;14.55;;
22557;SDS011;11445;53.816;8.902;2022-11-13T06:03:50;22.25;;;14.07;;
22557;SDS011;11445;53.816;8.902;2022-11-13T06:06:19;21.33;;;14.00;;
22557;SDS011;11445;53.816;8.902;2022-11-13T06:08:47;20.55;;;14.10;;
22557;SDS011;11445;53.816;8.902;2022-11-13T06:11:16;25.27;;;13.48;;
22557;SDS011;11445;53.816;8.902;2022-11-13T06:13:46;23.83;;;15.18;;
22557;SDS011;11445;53.816;8.902;2022-11-13T06:16:14;22.17;;;13.90;;
22557;SDS011;11445;53.816;8.902;2022-11-13T06:18:42;22.30;;;14.38;;
22557;SDS011;11445;53.816;8.902;2022-11-13T06:21:11;26.48;;;15.23;;
22557;SDS011;11445;53.816;8.902;2022-11-13T06:23:41;27.88;;;14.18;;
22557;SDS011;11445;53.816;8.902;2022-11-13T06:26:09;27.15;;;14.55;;
22557;SDS011;11445;53.816;8.902;2022-11-13T06:28:38;24.90;;;14.77;;
22557;SDS011;11445;53.816;8.902;2022-11-13T06:31:06;24.40;;;14.50;;
22557;SDS011;11445;53.816;8.902;2022-11-13T06:33:34;28.88;;;15.00;;
22557;SDS011;11445;53.816;8.902;2022-11-13T06:36:02;25.88;;;14.57;;
22557;SDS011;11445;53.816;8.902;2022-11-13T06:38:30;27.98;;;15.38;;
22557;SDS011;11445;53.816;8.902;2022-11-13T06:40:59;23.35;;;14.15;;
22557;SDS011;11445;53.816;8.902;2022-11-13T06:43:27;27.60;;;15.77;;
22557;SDS011;11445;53.816;8.902;2022-11-13T06:45:55;32.10;;;15.60;;
22557;SDS011;11445;53.816;8.902;2022-11-13T06:48:23;25.83;;;14.93;;
22557;SDS011;11445;53.816;8.902;2022-11-13T06:50:50;27.42;;;15.27;;
22557;SDS011;11445;53.816;8.902;2022-11-13T06:53:17;24.17;;;14.90;;
22557;SDS011;11445;53.816;8.902;2022-11-13T06:55:45;22.67;;;14.43;;
22557;SDS011;11445;53.816;8.902;2022-11-13T06:58:15;25.45;;;15.27;;
22557;SDS011;11445;53.816;8.902;2022-11-13T07:00:42;23.00;;;14.55;;
22557;SDS011;11445;53.816;8.902;2022-11-13T07:03:13;29.58;;;14.48;;
22557;SDS011;11445;53.816;8.902;2022-11-13T07:05:42;24.73;;;15.52;;
22557;SDS011;11445;53.816;8.902;2022-11-13T07:08:09;24.88;;;15.65;;
22557;SDS011;11445;53.816;8.902;2022-11-13T07:10:36;26.10;;;15.43;;
22557;SDS011;11445;53.816;8.902;2022-11-13T07:13:04;25.55;;;15.70;;
22557;SDS011;11445;53.816;8.902;2022-11-13T07:15:33;31.27;;;15.93;;
22557;SDS011;11445;53.816;8.902;2022-11-13T07:18:00;28.10;;;15.40;;
22557;SDS011;11445;53.816;8.902;2022-11-13T07:20:28;25.02;;;15.75;;
22557;SDS011;11445;53.816;8.902;2022-11-13T07:22:55;28.42;;;16.25;;
22557;SDS011;11445;53.816;8.902;2022-11-13T07:25:23;26.77;;;15.23;;
22557;SDS011;11445;53.816;8.902;2022-11-13T07:27:50;25.90;;;16.08;;
22557;SDS011;11445;53.816;8.902;2022-11-13T07:30:17;27.83;;;16.48;;
22557;SDS011;11445;53.816;8.902;2022-11-13T07:32:46;28.92;;;15.43;;
22557;SDS011;11445;53.816;8.902;2022-11-13T07:35:13;32.10;;;16.63;;
22557;SDS011;11445;53.816;8.902;2022-11-13T07:37:41;22.30;;;14.98;;
22557;SDS011;11445;53.816;8.902;2022-11-13T07:40:09;29.85;;;15.50;;
22557;SDS011;11445;53.816;8.902;2022-11-13T07:42:37;30.35;;;15.85;;
22557;SDS011;11445;53.816;8.902;2022-11-13T07:45:04;24.48;;;15.13;;
22557;SDS011;11445;53.816;8.902;2022-11-13T07:47:32;25.85;;;15.48;;
22557;SDS011;11445;53.816;8.902;2022-11-13T07:50:00;22.15;;;15.23;;
22557;SDS011;11445;53.816;8.902;2022-11-13T07:52:27;26.05;;;15.05;;
22557;SDS011;11445;53.816;8.902;2022-11-13T07:54:54;30.58;;;17.15;;
22557;SDS011;11445;53.816;8.902;2022-11-13T07:57:21;26.17;;;15.45;;
22557;SDS011;11445;53.816;8.902;2022-11-13T07:59:48;27.58;;;15.65;;
22557;SDS011;11445;53.816;8.902;2022-11-13T08:02:15;26.13;;;16.58;;
22557;SDS011;11445;53.816;8.902;2022-11-13T08:04:42;23.73;;;14.95;;
22557;SDS011;11445;53.816;8.902;2022-11-13T08:07:11;27.48;;;16.13;;
22557;SDS011;11445;53.816;8.902;2022-11-13T08:09:38;27.20;;;17.10;;
22557;SDS011;11445;53.816;8.902;2022-11-13T08:12:05;28.83;;;17.55;;
22557;SDS011;11445;53.816;8.902;2022-11-13T08:14:32;26.55;;;16.10;;
22557;SDS011;11445;53.816;8.902;2022-11-13T08:16:59;26.13;;;15.93;;
22557;SDS011;11445;53.816;8.902;2022-11-13T08:19:26;28.70;;;15.95;;
22557;SDS011;11445;53.816;8.902;2022-11-13T08:21:54;25.52;;;16.33;;
22557;SDS011;11445;53.816;8.902;2022-11-13T08:24:22;29.00;;;16.15;;
22557;SDS011;11445;53.816;8.902;2022-11-13T08:26:49;24.50;;;15.55;;
22557;SDS011;11445;53.816;8.902;2022-11-13T08:29:16;27.25;;;15.98;;
22557;SDS011;11445;53.816;8.902;2022-11-13T08:31:43;24.75;;;14.38;;
22557;SDS011;11445;53.816;8.902;2022-11-13T08:34:10;24.55;;;16.35;;
22557;SDS011;11445;53.816;8.902;2022-11-13T08:36:37;33.15;;;16.85;;
22557;SDS011;11445;53.816;8.902;2022-11-13T08:39:04;23.13;;;15.55;;
22557;SDS011;11445;53.816;8.902;2022-11-13T08:41:33;27.80;;;17.55;;
22557;SDS011;11445;53.816;8.902;2022-11-13T08:44:00;27.63;;;16.75;;
22557;SDS011;11445;53.816;8.902;2022-11-13T08:46:27;29.33;;;16.85;;
22557;SDS011;11445;53.816;8.902;2022-11-13T08:48:54;30.90;;;17.52;;
22557;SDS011;11445;53.816;8.902;2022-11-13T08:51:21;28.83;;;16.88;;
22557;SDS011;11445;53.816;8.902;2022-11-13T08:53:48;28.75;;;17.08;;
22557;SDS011;11445;53.816;8.902;2022-11-13T08:56:15;31.50;;;17.60;;
22557;SDS011;11445;53.816;8.902;2022-11-13T08:58:43;26.23;;;16.10;;
22557;SDS011;11445;53.816;8.902;2022-11-13T09:01:10;30.15;;;17.58;;
22557;SDS011;11445;53.816;8.902;2022-11-13T09:03:37;30.70;;;18.30;;
22557;SDS011;11445;53.816;8.902;2022-11-13T09:06:04;27.60;;;17.25;;
22557;SDS011;11445;53.816;8.902;2022-11-13T09:08:32;27.70;;;17.95;;
22557;SDS011;11445;53.816;8.902;2022-11-13T09:11:03;28.73;;;17.75;;
22557;SDS011;11445;53.816;8.902;2022-11-13T09:13:30;35.15;;;18.42;;
22557;SDS011;11445;53.816;8.902;2022-11-13T09:15:59;30.85;;;17.98;;
22557;SDS011;11445;53.816;8.902;2022-11-13T09:18:27;32.00;;;18.02;;
22557;SDS011;11445;53.816;8.902;2022-11-13T09:20:54;28.30;;;17.45;;
22557;SDS011;11445;53.816;8.902;2022-11-13T09:23:25;32.38;;;17.13;;
22557;SDS011;11445;53.816;8.902;2022-11-13T09:25:52;32.83;;;18.45;;
22557;SDS011;11445;53.816;8.902;2022-11-13T09:28:20;30.50;;;18.75;;
22557;SDS011;11445;53.816;8.902;2022-11-13T09:30:47;32.33;;;18.27;;
22557;SDS011;11445;53.816;8.902;2022-11-13T09:33:15;31.20;;;18.70;;
22557;SDS011;11445;53.816;8.902;2022-11-13T09:35:42;31.48;;;17.67;;
22557;SDS011;11445;53.816;8.902;2022-11-13T09:38:10;29.02;;;17.27;;
22557;SDS011;11445;53.816;8.902;2022-11-13T09:40:40;26.60;;;17.50;;
22557;SDS011;11445;53.816;8.902;2022-11-13T09:43:14;26.50;;;14.85;;
22557;SDS011;11445;53.816;8.902;2022-11-13T09:45:55;25.38;;;14.35;;
22557;SDS011;11445;53.816;8.902;2022-11-13T09:48:27;21.92;;;14.45;;
22557;SDS011;11445;53.816;8.902;2022-11-13T09:50:58;27.35;;;14.00;;
22557;SDS011;11445;53.816;8.902;2022-11-13T09:53:35;30.00;;;16.33;;
22557;SDS011;11445;53.816;8.902;2022-11-13T09:56:10;22.38;;;15.02;;
22557;SDS011;11445;53.816;8.902;2022-11-13T09:58:48;25.92;;;15.32;;
22557;SDS011;11445;53.816;8.902;2022-11-13T10:01:22;22.35;;;14.70;;
22557;SDS011;11445;53.816;8.902;2022-11-13T10:03:57;24.02;;;15.77;;
22557;SDS011;11445;53.816;8.902;2022-11-13T10:06:31;22.52;;;15.02;;
22557;SDS011;11445;53.816;8.902;2022-11-13T10:09:08;23.33;;;14.57;;
22557;SDS011;11445;53.816;8.902;2022-11-13T10:11:42;25.90;;;15.45;;
22557;SDS011;11445;53.816;8.902;2022-11-13T10:14:15;26.13;;;15.15;;
22557;SDS011;11445;53.816;8.902;2022-11-13T10:16:46;26.40;;;17.25;;
22557;SDS011;11445;53.816;8.902;2022-11-13T10:19:21;26.95;;;15.57;;
22557;SDS011;11445;53.816;8.902;2022-11-13T10:21:52;25.83;;;16.40;;
22557;SDS011;11445;53.816;8.902;2022-11-13T10:24:26;28.30;;;17.13;;
22557;SDS011;11445;53.816;8.902;2022-11-13T10:26:59;22.45;;;15.10;;
22557;SDS011;11445;53.816;8.902;2022-11-13T10:29:27;28.17;;;16.98;;
22557;SDS011;11445;53.816;8.902;2022-11-13T10:31:55;33.22;;;17.42;;
22557;SDS011;11445;53.816;8.902;2022-11-13T10:34:24;27.85;;;16.40;;
22557;SDS011;11445;53.816;8.902;2022-11-13T10:36:59;26.13;;;15.95;;
22557;SDS011;11445;53.816;8.902;2022-11-13T10:39:42;28.98;;;16.92;;
22557;SDS011;11445;53.816;8.902;2022-11-13T10:42:18;25.02;;;16.13;;
22557;SDS011;11445;53.816;8.902;2022-11-13T10:44:51;25.27;;;16.75;;
22557;SDS011;11445;53.816;8.902;2022-11-13T10:47:21;26.63;;;17.13;;
22557;SDS011;11445;53.816;8.902;2022-11-13T10:49:51;27.38;;;15.77;;
22557;SDS011;11445;53.816;8.902;2022-11-13T10:52:18;28.25;;;17.35;;
22557;SDS011;11445;53.816;8.902;2022-11-13T10:54:46;29.67;;;17.73;;
22557;SDS011;11445;53.816;8.902;2022-11-13T10:57:20;31.35;;;17.15;;
22557;SDS011;11445;53.816;8.902;2022-11-13T10:59:54;28.20;;;17.38;;
22557;SDS011;11445;53.816;8.902;2022-11-13T11:02:22;27.65;;;16.35;;
22557;SDS011;11445;53.816;8.902;2022-11-13T11:05:01;26.45;;;17.13;;
22557;SDS011;11445;53.816;8.902;2022-11-13T11:07:32;26.77;;;16.33;;
22557;SDS011;11445;53.816;8.902;2022-11-13T11:10:06;30.45;;;17.80;;
22557;SDS011;11445;53.816;8.902;2022-11-13T11:12:50;25.85;;;16.30;;
22557;SDS011;11445;53.816;8.902;2022-11-13T11:15:19;30.10;;;17.10;;
22557;SDS011;11445;53.816;8.902;2022-11-13T11:17:51;27.92;;;16.98;;
22557;SDS011;11445;53.816;8.902;2022-11-13T11:20:22;30.25;;;16.67;;
22557;SDS011;11445;53.816;8.902;2022-11-13T11:22:59;29.90;;;17.92;;
22557;SDS011;11445;53.816;8.902;2022-11-13T11:25:33;31.05;;;17.15;;
22557;SDS011;11445;53.816;8.902;2022-11-13T11:28:04;27.92;;;16.92;;
22557;SDS011;11445;53.816;8.902;2022-11-13T11:30:46;30.75;;;17.35;;
22557;SDS011;11445;53.816;8.902;2022-11-13T11:33:19;29.75;;;16.90;;
22557;SDS011;11445;53.816;8.902;2022-11-13T11:35:53;29.15;;;17.73;;
22557;SDS011;11445;53.816;8.902;2022-11-13T11:38:28;29.52;;;17.13;;
22557;SDS011;11445;53.816;8.902;2022-11-13T11:41:02;29.55;;;18.25;;
22557;SDS011;11445;53.816;8.902;2022-11-13T11:43:37;35.13;;;18.42;;
22557;SDS011;11445;53.816;8.902;2022-11-13T11:46:09;32.03;;;19.45;;
22557;SDS011;11445;53.816;8.902;2022-11-13T11:48:37;30.38;;;17.88;;
22557;SDS011;11445;53.816;8.902;2022-11-13T11:51:10;30.17;;;18.00;;
22557;SDS011;11445;53.816;8.902;2022-11-13T11:53:45;34.10;;;18.40;;
22557;SDS011;11445;53.816;8.902;2022-11-13T11:56:20;31.42;;;18.25;;
22557;SDS011;11445;53.816;8.902;2022-11-13T11:58:59;32.17;;;18.73;;
22557;SDS011;11445;53.816;8.902;2022-11-13T12:01:42;28.40;;;16.95;;
22557;SDS011;11445;53.816;8.902;2022-11-13T12:04:27;29.52;;;16.98;;
22557;SDS011;11445;53.816;8.902;2022-11-13T12:07:09;34.80;;;17.55;;
22557;SDS011;11445;53.816;8.902;2022-11-13T12:09:46;33.47;;;18.17;;
22557;SDS011;11445;53.816;8.902;2022-11-13T12:12:22;28.52;;;17.02;;
22557;SDS011;11445;53.816;8.902;2022-11-13T12:15:08;31.80;;;17.35;;
22557;SDS011;11445;53.816;8.902;2022-11-13T12:17:45;28.00;;;17.15;;
22557;SDS011;11445;53.816;8.902;2022-11-13T12:20:22;30.85;;;18.13;;
22557;SDS011;11445;53.816;8.902;2022-11-13T12:22:58;30.75;;;17.90;;
22557;SDS011;11445;53.816;8.902;2022-11-13T12:25:34;33.38;;;18.08;;
22557;SDS011;11445;53.816;8.902;2022-11-13T12:28:10;30.48;;;18.20;;
22557;SDS011;11445;53.816;8.902;2022-11-13T12:30:45;31.55;;;17.52;;
22557;SDS011;11445;53.816;8.902;2022-11-13T12:33:22;34.00;;;18.40;;
22557;SDS011;11445;53.816;8.902;2022-11-13T12:35:59;27.88;;;16.52;;
22557;SDS011;11445;53.816;8.902;2022-11-13T12:38:33;29.92;;;16.75;;
22557;SDS011;11445;53.816;8.902;2022-11-13T12:41:08;31.48;;;16.90;;
22557;SDS011;11445;53.816;8.902;2022-11-13T12:43:50;27.52;;;16.20;;
22557;SDS011;11445;53.816;8.902;2022-11-13T12:46:33;28.23;;;16.38;;
22557;SDS011;11445;53.816;8.902;2022-11-13T12:49:02;34.50;;;17.45;;
22557;SDS011;11445;53.816;8.902;2022-11-13T12:51:51;28.05;;;16.17;;
22557;SDS011;11445;53.816;8.902;2022-11-13T12:54:25;30.58;;;17.73;;
22557;SDS011;11445;53.816;8.902;2022-11-13T12:59:31;35.45;;;19.15;;
22557;SDS011;11445;53.816;8.902;2022-11-13T13:02:02;33.13;;;18.13;;
22557;SDS011;11445;53.816;8.902;2022-11-13T13:04:51;32.97;;;19.77;;
22557;SDS011;11445;53.816;8.902;2022-11-13T13:07:31;32.17;;;19.38;;
22557;SDS011;11445;53.816;8.902;2022-11-13T13:10:16;36.90;;;18.67;;
22557;SDS011;11445;53.816;8.902;2022-11-13T13:12:51;33.95;;;19.75;;
22557;SDS011;11445;53.816;8.902;2022-11-13T13:15:26;31.35;;;18.75;;
22557;SDS011;11445;53.816;8.902;2022-11-13T13:20:28;31.40;;;19.85;;
22557;SDS011;11445;53.816;8.902;2022-11-13T13:22:59;31.98;;;18.25;;
22557;SDS011;11445;53.816;8.902;2022-11-13T13:25:28;29.95;;;17.67;;
22557;SDS011;11445;53.816;8.902;2022-11-13T13:27:57;32.85;;;19.05;;
22557;SDS011;11445;53.816;8.902;2022-11-13T13:30:26;31.27;;;17.92;;
22557;SDS011;11445;53.816;8.902;2022-11-13T13:33:01;26.10;;;16.70;;
22557;SDS011;11445;53.816;8.902;2022-11-13T13:35:38;32.08;;;17.23;;
22557;SDS011;11445;53.816;8.902;2022-11-13T13:38:13;31.95;;;17.73;;
22557;SDS011;11445;53.816;8.902;2022-11-13T13:40:48;32.17;;;16.73;;
22557;SDS011;11445;53.816;8.902;2022-11-13T13:43:28;28.08;;;17.33;;
22557;SDS011;11445;53.816;8.902;2022-11-13T13:46:06;31.73;;;17.45;;
22557;SDS011;11445;53.816;8.902;2022-11-13T13:48:39;31.20;;;18.02;;
22557;SDS011;11445;53.816;8.902;2022-11-13T13:51:15;29.67;;;17.10;;
22557;SDS011;11445;53.816;8.902;2022-11-13T13:53:48;36.25;;;17.58;;
22557;SDS011;11445;53.816;8.902;2022-11-13T13:56:17;29.13;;;17.15;;
22557;SDS011;11445;53.816;8.902;2022-11-13T13:58:46;28.05;;;17.15;;
22557;SDS011;11445;53.816;8.902;2022-11-13T14:01:24;29.92;;;17.80;;
22557;SDS011;11445;53.816;8.902;2022-11-13T14:04:01;32.95;;;18.45;;
22557;SDS011;11445;53.816;8.902;2022-11-13T14:06:30;29.73;;;17.70;;
22557;SDS011;11445;53.816;8.902;2022-11-13T14:09:05;28.83;;;16.67;;
22557;SDS011;11445;53.816;8.902;2022-11-13T14:11:35;28.67;;;17.00;;
22557;SDS011;11445;53.816;8.902;2022-11-13T14:14:08;29.45;;;16.75;;
22557;SDS011;11445;53.816;8.902;2022-11-13T14:16:45;30.95;;;16.92;;
22557;SDS011;11445;53.816;8.902;2022-11-13T14:19:13;31.95;;;17.35;;
22557;SDS011;11445;53.816;8.902;2022-11-13T14:21:41;27.65;;;16.13;;
22557;SDS011;11445;53.816;8.902;2022-11-13T14:24:13;32.08;;;16.15;;
22557;SDS011;11445;53.816;8.902;2022-11-13T14:26:44;28.77;;;16.52;;
22557;SDS011;11445;53.816;8.902;2022-11-13T14:29:18;27.80;;;15.60;;
22557;SDS011;11445;53.816;8.902;2022-11-13T14:31:48;27.13;;;15.75;;
22557;SDS011;11445;53.816;8.902;2022-11-13T14:34:18;28.20;;;15.63;;
22557;SDS011;11445;53.816;8.902;2022-11-13T14:36:48;28.67;;;15.15;;
22557;SDS011;11445;53.816;8.902;2022-11-13T14:39:19;27.20;;;14.90;;
22557;SDS011;11445;53.816;8.902;2022-11-13T14:41:52;31.73;;;16.50;;
22557;SDS011;11445;53.816;8.902;2022-11-13T14:44:25;28.15;;;14.82;;